DLH826 RJTT-EDDM
Flight info
| Callsign | DLH826 |
|---|---|
| Flight time | N/A |
| Altitude | 33000 |
| Route | INUBO Y808 PUTER/N0490F340 A590 PUGAL/N0495F350 A590 PASRO DCT 4841N16133E DCT OPAKE DCT MARCC DCT JUJXI/N0501F370 DCT 73N161W DCT NAMWE DCT 83N130W 84N120W 85N100W/N0500F390 85N080W DCT PELRI/M085F390 DCT 81N020W 73N000W/N0497F390 DCT ROSBO DCT NERDO/N0492F410 DCT RAXLU DCT GARLU DCT EMBOX DCT ALOSO T703 SODRO/N0436F310 T703 LULAR/N0432F300 T105 LANDU LANDU2B |
| Aircraft | A388/J-SADE2E3FGHIJ3J4J5M1RWXY/LB1D1 |
Departure
| Time | 2026-05-05 18:06 |
|---|---|
| Airport | Tokyo Haneda International Airport (RJTT) |
Arrival
| Time | N/A |
|---|---|
| Airport | Munich Airport (EDDM) |
| Time | Latitude | Longitude | Altitude | Speed | Heading |
|---|---|---|---|---|---|
| 2026-05-05 16:57 | 35.54480 | 139.77116 | 28 ft | 0 kts | 240° |
| 2026-05-05 17:53 | 35.54482 | 139.77120 | 28 ft | 3 kts | 240° |
| 2026-05-05 17:53 | 35.54495 | 139.77148 | 27 ft | 4 kts | 242° |
| 2026-05-05 17:53 | 35.54506 | 139.77174 | 27 ft | 3 kts | 239° |
| 2026-05-05 17:53 | 35.54521 | 139.77191 | 27 ft | 4 kts | 173° |
| 2026-05-05 17:54 | 35.54546 | 139.77180 | 27 ft | 3 kts | 150° |
| 2026-05-05 17:54 | 35.54554 | 139.77174 | 28 ft | 3 kts | 150° |
| 2026-05-05 17:57 | 35.54497 | 139.77215 | 28 ft | 11 kts | 149° |
| 2026-05-05 17:57 | 35.54428 | 139.77265 | 28 ft | 12 kts | 149° |
| 2026-05-05 17:58 | 35.54365 | 139.77321 | 28 ft | 10 kts | 120° |
| 2026-05-05 17:58 | 35.54370 | 139.77405 | 28 ft | 12 kts | 65° |
| 2026-05-05 17:58 | 35.54425 | 139.77528 | 28 ft | 17 kts | 60° |
| 2026-05-05 17:58 | 35.54482 | 139.77579 | 28 ft | 15 kts | 4° |
| 2026-05-05 17:59 | 35.54587 | 139.77527 | 28 ft | 19 kts | 327° |
| 2026-05-05 17:59 | 35.54701 | 139.77444 | 28 ft | 19 kts | 328° |
| 2026-05-05 17:59 | 35.54820 | 139.77359 | 28 ft | 20 kts | 330° |
| 2026-05-05 17:59 | 35.54945 | 139.77273 | 28 ft | 21 kts | 330° |
| 2026-05-05 18:00 | 35.55071 | 139.77181 | 28 ft | 21 kts | 328° |
| 2026-05-05 18:00 | 35.55195 | 139.77087 | 28 ft | 21 kts | 332° |
| 2026-05-05 18:00 | 35.55242 | 139.77057 | 28 ft | 22 kts | 332° |
| 2026-05-05 18:00 | 35.55375 | 139.76969 | 28 ft | 22 kts | 330° |
| 2026-05-05 18:01 | 35.55512 | 139.76925 | 28 ft | 21 kts | 25° |
| 2026-05-05 18:01 | 35.55607 | 139.76999 | 27 ft | 7 kts | 35° |
| 2026-05-05 18:01 | 35.55689 | 139.77072 | 29 ft | 18 kts | 36° |
| 2026-05-05 18:01 | 35.55799 | 139.77168 | 28 ft | 20 kts | 34° |
| 2026-05-05 18:02 | 35.55920 | 139.77267 | 28 ft | 21 kts | 34° |
| 2026-05-05 18:02 | 35.56043 | 139.77376 | 28 ft | 23 kts | 35° |
| 2026-05-05 18:02 | 35.56176 | 139.77491 | 28 ft | 22 kts | 35° |
| 2026-05-05 18:02 | 35.56290 | 139.77588 | 28 ft | 20 kts | 35° |
| 2026-05-05 18:03 | 35.56366 | 139.77713 | 28 ft | 18 kts | 58° |
| 2026-05-05 18:03 | 35.56398 | 139.77774 | 28 ft | 1 kts | 59° |
| 2026-05-05 18:03 | 35.56422 | 139.77827 | 28 ft | 9 kts | 60° |
| 2026-05-05 18:03 | 35.56461 | 139.77909 | 28 ft | 13 kts | 60° |
| 2026-05-05 18:04 | 35.56509 | 139.78011 | 28 ft | 12 kts | 45° |
| 2026-05-05 18:04 | 35.56536 | 139.78025 | 28 ft | 7 kts | 353° |
| 2026-05-05 18:04 | 35.56578 | 139.77971 | 28 ft | 13 kts | 305° |
| 2026-05-05 18:04 | 35.56634 | 139.77875 | 28 ft | 15 kts | 306° |
| 2026-05-05 18:05 | 35.56694 | 139.77771 | 29 ft | 15 kts | 301° |
| 2026-05-05 18:05 | 35.56710 | 139.77686 | 30 ft | 8 kts | 245° |
| 2026-05-05 18:05 | 35.56668 | 139.77637 | 30 ft | 9 kts | 213° |
| 2026-05-05 18:05 | 35.56437 | 139.77441 | 30 ft | 78 kts | 216° |
| 2026-05-05 18:06 | 35.55801 | 139.76900 | 30 ft | 140 kts | 215° |
| 2026-05-05 18:06 | 35.55226 | 139.76410 | 92 ft | 160 kts | 214° |
| 2026-05-05 18:06 | 35.54031 | 139.75358 | 875 ft | 152 kts | 214° |
| 2026-05-05 18:06 | 35.53164 | 139.74615 | 1474 ft | 153 kts | 212° |
| 2026-05-05 18:07 | 35.52261 | 139.73859 | 2118 ft | 159 kts | 213° |
| 2026-05-05 18:07 | 35.51349 | 139.73036 | 2638 ft | 170 kts | 217° |
| 2026-05-05 18:07 | 35.50372 | 139.72172 | 3223 ft | 176 kts | 205° |
| 2026-05-05 18:07 | 35.49217 | 139.71712 | 3934 ft | 175 kts | 188° |
| 2026-05-05 18:08 | 35.47984 | 139.71770 | 4516 ft | 185 kts | 171° |
| 2026-05-05 18:08 | 35.46758 | 139.72360 | 5173 ft | 195 kts | 153° |
| 2026-05-05 18:08 | 35.45723 | 139.73491 | 5788 ft | 207 kts | 128° |
| 2026-05-05 18:08 | 35.45139 | 139.75147 | 6412 ft | 220 kts | 101° |
| 2026-05-05 18:09 | 35.45159 | 139.77089 | 6934 ft | 237 kts | 78° |
| 2026-05-05 18:09 | 35.45902 | 139.78973 | 7159 ft | 259 kts | 49° |
| 2026-05-05 18:09 | 35.47284 | 139.80525 | 7372 ft | 279 kts | 42° |
| 2026-05-05 18:09 | 35.48636 | 139.82302 | 7690 ft | 290 kts | 55° |
| 2026-05-05 18:10 | 35.49673 | 139.84431 | 8303 ft | 291 kts | 65° |
| 2026-05-05 18:10 | 35.50449 | 139.86709 | 8874 ft | 294 kts | 72° |
| 2026-05-05 18:10 | 35.51095 | 139.89102 | 9478 ft | 297 kts | 75° |
| 2026-05-05 18:10 | 35.51687 | 139.91547 | 10093 ft | 300 kts | 76° |
| 2026-05-05 18:11 | 35.52270 | 139.94023 | 10535 ft | 308 kts | 76° |
| 2026-05-05 18:11 | 35.52882 | 139.96625 | 10669 ft | 325 kts | 76° |
| 2026-05-05 18:11 | 35.53529 | 139.99344 | 10822 ft | 334 kts | 76° |
| 2026-05-05 18:11 | 35.54190 | 140.02094 | 10747 ft | 340 kts | 75° |
| 2026-05-05 18:12 | 35.54873 | 140.04933 | 10939 ft | 351 kts | 75° |
| 2026-05-05 18:12 | 35.55571 | 140.07828 | 11453 ft | 354 kts | 75° |
| 2026-05-05 18:12 | 35.56271 | 140.10734 | 11979 ft | 355 kts | 76° |
| 2026-05-05 18:12 | 35.56972 | 140.13652 | 12511 ft | 358 kts | 76° |
| 2026-05-05 18:13 | 35.57677 | 140.16592 | 13025 ft | 360 kts | 76° |
| 2026-05-05 18:13 | 35.58386 | 140.19555 | 13556 ft | 362 kts | 76° |
| 2026-05-05 18:13 | 35.59096 | 140.22532 | 14053 ft | 364 kts | 76° |
| 2026-05-05 18:13 | 35.59811 | 140.25529 | 14504 ft | 368 kts | 76° |
| 2026-05-05 18:14 | 35.60534 | 140.28559 | 14939 ft | 371 kts | 76° |
| 2026-05-05 18:14 | 35.61262 | 140.31615 | 15369 ft | 374 kts | 76° |
| 2026-05-05 18:14 | 35.61993 | 140.34688 | 15788 ft | 377 kts | 76° |
| 2026-05-05 18:14 | 35.62731 | 140.37796 | 16223 ft | 380 kts | 76° |
| 2026-05-05 18:15 | 35.63476 | 140.40933 | 16651 ft | 383 kts | 76° |
| 2026-05-05 18:15 | 35.64225 | 140.44096 | 17062 ft | 387 kts | 76° |
| 2026-05-05 18:15 | 35.64979 | 140.47283 | 17464 ft | 389 kts | 76° |
| 2026-05-05 18:15 | 35.65738 | 140.50493 | 17884 ft | 392 kts | 76° |
| 2026-05-05 18:16 | 35.66501 | 140.53726 | 18283 ft | 395 kts | 76° |
| 2026-05-05 18:16 | 35.67268 | 140.56983 | 18658 ft | 398 kts | 76° |
| 2026-05-05 18:16 | 35.68041 | 140.60268 | 18952 ft | 402 kts | 76° |
| 2026-05-05 18:16 | 35.68821 | 140.63585 | 19259 ft | 406 kts | 76° |
| 2026-05-05 18:17 | 35.69609 | 140.66944 | 19550 ft | 410 kts | 76° |
| 2026-05-05 18:17 | 35.70403 | 140.70330 | 19857 ft | 414 kts | 76° |
| 2026-05-05 18:17 | 35.71204 | 140.73753 | 20156 ft | 418 kts | 76° |
| 2026-05-05 18:17 | 35.71930 | 140.77222 | 20430 ft | 419 kts | 84° |
| 2026-05-05 18:18 | 35.72033 | 140.80749 | 20727 ft | 418 kts | 99° |
| 2026-05-05 18:18 | 35.71411 | 140.84262 | 21003 ft | 415 kts | 114° |
| 2026-05-05 18:18 | 35.70414 | 140.87554 | 21252 ft | 418 kts | 114° |
| 2026-05-05 18:18 | 35.69408 | 140.90935 | 21516 ft | 423 kts | 114° |
| 2026-05-05 18:19 | 35.68404 | 140.94349 | 21789 ft | 426 kts | 114° |
| 2026-05-05 18:19 | 35.67392 | 140.97793 | 22067 ft | 430 kts | 114° |
| 2026-05-05 18:19 | 35.66369 | 141.01270 | 22347 ft | 434 kts | 114° |
| 2026-05-05 18:19 | 35.65336 | 141.04770 | 22633 ft | 437 kts | 114° |
| 2026-05-05 18:20 | 35.64293 | 141.08301 | 22906 ft | 441 kts | 114° |
| 2026-05-05 18:20 | 35.63239 | 141.11860 | 23183 ft | 444 kts | 114° |
| 2026-05-05 18:20 | 35.62184 | 141.15419 | 23518 ft | 445 kts | 114° |
| 2026-05-05 18:20 | 35.61110 | 141.19034 | 23576 ft | 454 kts | 115° |
| 2026-05-05 18:21 | 35.60030 | 141.22665 | 23821 ft | 458 kts | 115° |
| 2026-05-05 18:21 | 35.58934 | 141.26348 | 24060 ft | 461 kts | 115° |
| 2026-05-05 18:21 | 35.57828 | 141.30061 | 24313 ft | 464 kts | 115° |
| 2026-05-05 18:21 | 35.56715 | 141.33794 | 24537 ft | 466 kts | 115° |
| 2026-05-05 18:22 | 35.55597 | 141.37537 | 24902 ft | 466 kts | 115° |
| 2026-05-05 18:22 | 35.54477 | 141.41281 | 25100 ft | 470 kts | 115° |
| 2026-05-05 18:22 | 35.53342 | 141.45069 | 25307 ft | 473 kts | 115° |
| 2026-05-05 18:22 | 35.52193 | 141.48894 | 25382 ft | 481 kts | 115° |
| 2026-05-05 18:23 | 35.51034 | 141.52748 | 25650 ft | 483 kts | 115° |
| 2026-05-05 18:23 | 35.49868 | 141.56628 | 25915 ft | 486 kts | 116° |
| 2026-05-05 18:23 | 35.48693 | 141.60533 | 26161 ft | 488 kts | 116° |
| 2026-05-05 18:23 | 35.47510 | 141.64456 | 26434 ft | 491 kts | 116° |
| 2026-05-05 18:24 | 35.46320 | 141.68396 | 26723 ft | 494 kts | 116° |
| 2026-05-05 18:24 | 35.45172 | 141.72406 | 26978 ft | 501 kts | 111° |
| 2026-05-05 18:24 | 35.44431 | 141.76607 | 27240 ft | 509 kts | 101° |
| 2026-05-05 18:24 | 35.44173 | 141.80971 | 27515 ft | 516 kts | 92° |
| 2026-05-05 18:25 | 35.44174 | 141.85322 | 27829 ft | 519 kts | 92° |
| 2026-05-05 18:25 | 35.44163 | 141.88316 | 28018 ft | 521 kts | 93° |
| 2026-05-05 18:25 | 35.44125 | 141.94222 | 28385 ft | 525 kts | 93° |
| 2026-05-05 18:25 | 35.44089 | 141.98713 | 28669 ft | 529 kts | 93° |
| 2026-05-05 18:26 | 35.44051 | 142.03238 | 28954 ft | 532 kts | 93° |
| 2026-05-05 18:26 | 35.44011 | 142.07790 | 29277 ft | 534 kts | 93° |
| 2026-05-05 18:26 | 35.43971 | 142.12366 | 29565 ft | 538 kts | 93° |
| 2026-05-05 18:26 | 35.43928 | 142.16964 | 29835 ft | 541 kts | 93° |
| 2026-05-05 18:27 | 35.43884 | 142.21591 | 30115 ft | 545 kts | 94° |
| 2026-05-05 18:27 | 35.43838 | 142.26244 | 30390 ft | 548 kts | 93° |
| 2026-05-05 18:27 | 35.43789 | 142.30942 | 30629 ft | 551 kts | 93° |
| 2026-05-05 18:27 | 35.43739 | 142.35651 | 30896 ft | 554 kts | 94° |
| 2026-05-05 18:28 | 35.43632 | 142.45151 | 31374 ft | 560 kts | 94° |
| 2026-05-05 18:28 | 35.43575 | 142.49942 | 31623 ft | 564 kts | 94° |
| 2026-05-05 18:28 | 35.43516 | 142.54759 | 31850 ft | 567 kts | 94° |
| 2026-05-05 18:29 | 35.43454 | 142.59612 | 32079 ft | 570 kts | 94° |
| 2026-05-05 18:29 | 35.43391 | 142.64427 | 32316 ft | 573 kts | 94° |
| 2026-05-05 18:29 | 35.43325 | 142.69316 | 32547 ft | 576 kts | 94° |
| 2026-05-05 18:29 | 35.43256 | 142.74253 | 32776 ft | 579 kts | 94° |
| 2026-05-05 18:30 | 35.43185 | 142.79203 | 33035 ft | 582 kts | 94° |
| 2026-05-05 18:30 | 35.43112 | 142.84172 | 33286 ft | 583 kts | 95° |
| 2026-05-05 18:30 | 35.42955 | 142.94258 | 33300 ft | 600 kts | 95° |
| 2026-05-05 18:31 | 35.42785 | 143.04639 | 33303 ft | 616 kts | 94° |
| 2026-05-05 18:31 | 35.42635 | 143.13473 | 33333 ft | 630 kts | 94° |
| 2026-05-05 18:32 | 35.42546 | 143.20647 | 33307 ft | 641 kts | 90° |
| 2026-05-05 18:32 | 35.43003 | 143.26139 | 33318 ft | 651 kts | 80° |
| 2026-05-05 18:32 | 35.45879 | 143.36657 | 33316 ft | 641 kts | 60° |
| 2026-05-05 18:33 | 35.48149 | 143.41232 | 33315 ft | 615 kts | 49° |
| 2026-05-05 18:33 | 35.50853 | 143.45162 | 33318 ft | 589 kts | 38° |
| 2026-05-05 18:33 | 35.53902 | 143.48369 | 33320 ft | 572 kts | 27° |
| 2026-05-05 18:33 | 35.57291 | 143.50871 | 33325 ft | 562 kts | 16° |
| 2026-05-05 18:34 | 35.60875 | 143.52583 | 33320 ft | 546 kts | 5° |
| 2026-05-05 18:34 | 35.64535 | 143.53493 | 33323 ft | 529 kts | 355° |
| 2026-05-05 18:34 | 35.71841 | 143.55442 | 33335 ft | 552 kts | 10° |
| 2026-05-05 18:35 | 35.78819 | 143.59568 | 33320 ft | 566 kts | 20° |
| 2026-05-05 18:35 | 35.85635 | 143.64488 | 33318 ft | 569 kts | 22° |
| 2026-05-05 18:36 | 35.92439 | 143.69484 | 33323 ft | 569 kts | 21° |
| 2026-05-05 18:36 | 35.99252 | 143.74463 | 33336 ft | 570 kts | 22° |
| 2026-05-05 18:37 | 36.06083 | 143.79453 | 33339 ft | 570 kts | 21° |
| 2026-05-05 18:37 | 36.12900 | 143.84442 | 33331 ft | 569 kts | 21° |
| 2026-05-05 18:38 | 36.19714 | 143.89439 | 33325 ft | 568 kts | 22° |
| 2026-05-05 18:38 | 36.26473 | 143.94405 | 33302 ft | 568 kts | 21° |
| 2026-05-05 18:39 | 36.33264 | 143.99409 | 33315 ft | 568 kts | 21° |
| 2026-05-05 18:39 | 36.40058 | 144.04426 | 33311 ft | 568 kts | 21° |
| 2026-05-05 18:40 | 36.45745 | 144.08634 | 33311 ft | 567 kts | 22° |
| 2026-05-05 18:40 | 36.52529 | 144.13662 | 33326 ft | 568 kts | 21° |
| 2026-05-05 18:41 | 36.59324 | 144.18708 | 33316 ft | 569 kts | 21° |
| 2026-05-05 18:41 | 36.66117 | 144.23765 | 33317 ft | 569 kts | 21° |
| 2026-05-05 18:42 | 36.72909 | 144.28831 | 33319 ft | 569 kts | 21° |
| 2026-05-05 18:42 | 36.79690 | 144.33899 | 33317 ft | 569 kts | 21° |
| 2026-05-05 18:43 | 36.86441 | 144.38965 | 33320 ft | 569 kts | 21° |
| 2026-05-05 18:43 | 36.93216 | 144.44062 | 33309 ft | 568 kts | 21° |
| 2026-05-05 18:44 | 36.99991 | 144.49168 | 33309 ft | 568 kts | 21° |
| 2026-05-05 18:44 | 37.06767 | 144.54286 | 33302 ft | 569 kts | 21° |
| 2026-05-05 18:45 | 37.13551 | 144.59420 | 33298 ft | 569 kts | 21° |
| 2026-05-05 18:45 | 37.20324 | 144.64556 | 33292 ft | 569 kts | 21° |
| 2026-05-05 18:46 | 37.27094 | 144.69702 | 33300 ft | 568 kts | 21° |
| 2026-05-05 18:46 | 37.33820 | 144.74826 | 33308 ft | 569 kts | 21° |
| 2026-05-05 18:47 | 37.40580 | 144.79987 | 33315 ft | 568 kts | 21° |
| 2026-05-05 18:47 | 37.47344 | 144.85161 | 33307 ft | 568 kts | 21° |
| 2026-05-05 18:48 | 37.54088 | 144.90331 | 33301 ft | 567 kts | 21° |
| 2026-05-05 18:48 | 37.60817 | 144.95501 | 33298 ft | 566 kts | 21° |
| 2026-05-05 18:49 | 37.67551 | 145.00685 | 33290 ft | 566 kts | 21° |
| 2026-05-05 18:49 | 37.74266 | 145.05867 | 33301 ft | 566 kts | 21° |
| 2026-05-05 18:50 | 37.80977 | 145.11056 | 33297 ft | 565 kts | 21° |
| 2026-05-05 18:50 | 37.87685 | 145.16253 | 33329 ft | 564 kts | 21° |
| 2026-05-05 18:51 | 37.94368 | 145.21445 | 33315 ft | 562 kts | 21° |
| 2026-05-05 18:51 | 38.00989 | 145.26597 | 33305 ft | 561 kts | 21° |
| 2026-05-05 18:52 | 38.07637 | 145.31783 | 33290 ft | 559 kts | 21° |
| 2026-05-05 18:52 | 38.14259 | 145.36957 | 33340 ft | 557 kts | 22° |
| 2026-05-05 18:53 | 38.20848 | 145.42119 | 33308 ft | 556 kts | 22° |
| 2026-05-05 18:53 | 38.27421 | 145.47279 | 33292 ft | 554 kts | 22° |
| 2026-05-05 18:54 | 38.33874 | 145.52733 | 33286 ft | 563 kts | 31° |
| 2026-05-05 18:54 | 38.39705 | 145.59496 | 33313 ft | 566 kts | 36° |
| 2026-05-05 18:55 | 38.45443 | 145.66248 | 33300 ft | 564 kts | 35° |
| 2026-05-05 18:55 | 38.51201 | 145.73033 | 33285 ft | 563 kts | 36° |
| 2026-05-05 18:56 | 38.56942 | 145.79826 | 33300 ft | 561 kts | 36° |
| 2026-05-05 18:56 | 38.62650 | 145.86602 | 33277 ft | 560 kts | 36° |
| 2026-05-05 18:57 | 38.68352 | 145.93387 | 33271 ft | 559 kts | 36° |
| 2026-05-05 18:57 | 38.74037 | 146.00164 | 33305 ft | 557 kts | 37° |
| 2026-05-05 18:58 | 38.79691 | 146.06923 | 33310 ft | 555 kts | 37° |
| 2026-05-05 18:58 | 38.85298 | 146.13640 | 33288 ft | 553 kts | 37° |
| 2026-05-05 18:59 | 38.90916 | 146.20385 | 33276 ft | 552 kts | 37° |
| 2026-05-05 18:59 | 38.96512 | 146.27120 | 33262 ft | 551 kts | 37° |
| 2026-05-05 19:00 | 39.02108 | 146.33867 | 33294 ft | 550 kts | 37° |
| 2026-05-05 19:00 | 39.07677 | 146.40599 | 33291 ft | 548 kts | 37° |
| 2026-05-05 19:01 | 39.13227 | 146.47325 | 33267 ft | 546 kts | 37° |
| 2026-05-05 19:01 | 39.18715 | 146.53989 | 33258 ft | 545 kts | 37° |
| 2026-05-05 19:02 | 39.24261 | 146.60739 | 33254 ft | 544 kts | 37° |
| 2026-05-05 19:02 | 39.29716 | 146.67392 | 33245 ft | 543 kts | 37° |
| 2026-05-05 19:03 | 39.35211 | 146.74109 | 33277 ft | 543 kts | 38° |
| 2026-05-05 19:03 | 39.40686 | 146.80819 | 33263 ft | 542 kts | 38° |
| 2026-05-05 19:04 | 39.46150 | 146.87530 | 33278 ft | 541 kts | 38° |
| 2026-05-05 19:04 | 39.51604 | 146.94245 | 33263 ft | 541 kts | 38° |
| 2026-05-05 19:05 | 39.57051 | 147.00965 | 33259 ft | 540 kts | 38° |
| 2026-05-05 19:05 | 39.62494 | 147.07696 | 33257 ft | 540 kts | 38° |
| 2026-05-05 19:06 | 39.67894 | 147.14388 | 33308 ft | 538 kts | 39° |
| 2026-05-05 19:06 | 39.73307 | 147.21114 | 33289 ft | 537 kts | 39° |
| 2026-05-05 19:07 | 39.78691 | 147.27820 | 33269 ft | 535 kts | 39° |
| 2026-05-05 19:07 | 39.84054 | 147.34513 | 33257 ft | 534 kts | 39° |
| 2026-05-05 19:08 | 39.89407 | 147.41208 | 33267 ft | 532 kts | 39° |
| 2026-05-05 19:08 | 39.94745 | 147.47900 | 33254 ft | 531 kts | 39° |
| 2026-05-05 19:09 | 40.00052 | 147.54567 | 33258 ft | 529 kts | 39° |
| 2026-05-05 19:09 | 40.05346 | 147.61235 | 33248 ft | 528 kts | 39° |
| 2026-05-05 19:10 | 40.10618 | 147.67891 | 33240 ft | 526 kts | 39° |
| 2026-05-05 19:10 | 40.15840 | 147.74497 | 33229 ft | 525 kts | 40° |
| 2026-05-05 19:11 | 40.21090 | 147.81153 | 33222 ft | 525 kts | 40° |
| 2026-05-05 19:11 | 40.26333 | 147.87816 | 33230 ft | 525 kts | 40° |
| 2026-05-05 19:12 | 40.31570 | 147.94485 | 33234 ft | 526 kts | 40° |
| 2026-05-05 19:12 | 40.36821 | 148.01190 | 33239 ft | 527 kts | 40° |
| 2026-05-05 19:13 | 40.42072 | 148.07909 | 33244 ft | 527 kts | 40° |
| 2026-05-05 19:13 | 40.47330 | 148.14652 | 33245 ft | 528 kts | 40° |
| 2026-05-05 19:14 | 40.52585 | 148.21408 | 33249 ft | 528 kts | 40° |
| 2026-05-05 19:14 | 40.57803 | 148.28133 | 33248 ft | 529 kts | 40° |
| 2026-05-05 19:15 | 40.63089 | 148.34959 | 33244 ft | 529 kts | 40° |
| 2026-05-05 19:15 | 40.68333 | 148.41747 | 33235 ft | 529 kts | 40° |
| 2026-05-05 19:16 | 40.73542 | 148.48507 | 33234 ft | 529 kts | 40° |
| 2026-05-05 19:16 | 40.78781 | 148.55320 | 33231 ft | 529 kts | 40° |
| 2026-05-05 19:17 | 40.84011 | 148.62138 | 33226 ft | 528 kts | 40° |
| 2026-05-05 19:17 | 40.89238 | 148.68968 | 33230 ft | 528 kts | 40° |
| 2026-05-05 19:18 | 40.94455 | 148.75801 | 33233 ft | 527 kts | 40° |
| 2026-05-05 19:18 | 40.99668 | 148.82644 | 33226 ft | 527 kts | 40° |
| 2026-05-05 19:19 | 41.04866 | 148.89476 | 33212 ft | 526 kts | 40° |
| 2026-05-05 19:19 | 41.10055 | 148.96314 | 33208 ft | 526 kts | 41° |
| 2026-05-05 19:20 | 41.15216 | 149.03178 | 33201 ft | 525 kts | 41° |
| 2026-05-05 19:20 | 41.20385 | 149.10042 | 33209 ft | 525 kts | 41° |
| 2026-05-05 19:21 | 41.24684 | 149.15750 | 33214 ft | 525 kts | 41° |
| 2026-05-05 19:21 | 41.29845 | 149.22615 | 33210 ft | 525 kts | 41° |
| 2026-05-05 19:22 | 41.35002 | 149.29495 | 33203 ft | 524 kts | 41° |
| 2026-05-05 19:22 | 41.40140 | 149.36372 | 33208 ft | 523 kts | 41° |
| 2026-05-05 19:23 | 41.45263 | 149.43245 | 33196 ft | 522 kts | 41° |
| 2026-05-05 19:23 | 41.50377 | 149.50123 | 33189 ft | 521 kts | 41° |
| 2026-05-05 19:24 | 41.55445 | 149.56955 | 33188 ft | 521 kts | 41° |
| 2026-05-05 19:24 | 41.60572 | 149.63882 | 33182 ft | 520 kts | 41° |
| 2026-05-05 19:25 | 41.65617 | 149.70716 | 33174 ft | 520 kts | 41° |
| 2026-05-05 19:25 | 41.70725 | 149.77652 | 33184 ft | 519 kts | 41° |
| 2026-05-05 19:26 | 41.75795 | 149.84552 | 33189 ft | 519 kts | 41° |
| 2026-05-05 19:26 | 41.80862 | 149.91465 | 33185 ft | 519 kts | 41° |
| 2026-05-05 19:27 | 41.85883 | 149.98332 | 33177 ft | 519 kts | 41° |
| 2026-05-05 19:27 | 41.90943 | 150.05267 | 33174 ft | 519 kts | 41° |
| 2026-05-05 19:28 | 41.95990 | 150.12203 | 33163 ft | 520 kts | 41° |
| 2026-05-05 19:28 | 42.01045 | 150.19167 | 33170 ft | 520 kts | 41° |
| 2026-05-05 19:29 | 42.06102 | 150.26148 | 33162 ft | 520 kts | 41° |
| 2026-05-05 19:29 | 42.11140 | 150.33121 | 33159 ft | 519 kts | 41° |
| 2026-05-05 19:30 | 42.16166 | 150.40096 | 33174 ft | 519 kts | 41° |
| 2026-05-05 19:30 | 42.21193 | 150.47087 | 33150 ft | 519 kts | 41° |
| 2026-05-05 19:31 | 42.26203 | 150.54072 | 33142 ft | 518 kts | 41° |
| 2026-05-05 19:31 | 42.31181 | 150.61033 | 33147 ft | 517 kts | 41° |
| 2026-05-05 19:32 | 42.36178 | 150.68033 | 33139 ft | 517 kts | 41° |
| 2026-05-05 19:32 | 42.41161 | 150.75030 | 33128 ft | 516 kts | 41° |
| 2026-05-05 19:33 | 42.46141 | 150.82041 | 33133 ft | 516 kts | 40° |
| 2026-05-05 19:33 | 42.51104 | 150.89047 | 33123 ft | 516 kts | 40° |
| 2026-05-05 19:34 | 42.56079 | 150.96085 | 33112 ft | 516 kts | 40° |
| 2026-05-05 19:35 | 42.63525 | 151.06652 | 33099 ft | 516 kts | 40° |
| 2026-05-05 19:35 | 42.68486 | 151.13713 | 33106 ft | 517 kts | 40° |
| 2026-05-05 19:36 | 42.73453 | 151.20802 | 33100 ft | 517 kts | 40° |
| 2026-05-05 19:36 | 42.78385 | 151.27860 | 33108 ft | 518 kts | 40° |
| 2026-05-05 19:37 | 42.83348 | 151.34977 | 33126 ft | 518 kts | 40° |
| 2026-05-05 19:37 | 42.88313 | 151.42115 | 33089 ft | 519 kts | 40° |
| 2026-05-05 19:38 | 42.93281 | 151.49276 | 33104 ft | 519 kts | 40° |
| 2026-05-05 19:38 | 42.98251 | 151.56459 | 33084 ft | 520 kts | 40° |
| 2026-05-05 19:39 | 43.03215 | 151.63649 | 33081 ft | 520 kts | 40° |
| 2026-05-05 19:39 | 43.08144 | 151.70807 | 33080 ft | 520 kts | 40° |
| 2026-05-05 19:40 | 43.13104 | 151.78030 | 33070 ft | 520 kts | 40° |
| 2026-05-05 19:40 | 43.18062 | 151.85267 | 33056 ft | 521 kts | 40° |
| 2026-05-05 19:41 | 43.23028 | 151.92533 | 33052 ft | 522 kts | 40° |
| 2026-05-05 19:41 | 43.27993 | 151.99819 | 33057 ft | 523 kts | 40° |
| 2026-05-05 19:42 | 43.32958 | 152.07121 | 33059 ft | 523 kts | 40° |
| 2026-05-05 19:42 | 43.37890 | 152.14394 | 33057 ft | 524 kts | 40° |
| 2026-05-05 19:43 | 43.42854 | 152.21735 | 33054 ft | 524 kts | 40° |
| 2026-05-05 19:43 | 43.47811 | 152.29083 | 33054 ft | 523 kts | 40° |
| 2026-05-05 19:44 | 43.52760 | 152.36438 | 33031 ft | 524 kts | 40° |
| 2026-05-05 19:44 | 43.57714 | 152.43820 | 33062 ft | 524 kts | 40° |
| 2026-05-05 19:45 | 43.62668 | 152.51221 | 33045 ft | 524 kts | 40° |
| 2026-05-05 19:45 | 43.67610 | 152.58623 | 33042 ft | 523 kts | 40° |
| 2026-05-05 19:46 | 43.72504 | 152.65972 | 33036 ft | 523 kts | 40° |
| 2026-05-05 19:46 | 43.77360 | 152.73284 | 33029 ft | 523 kts | 40° |
| 2026-05-05 19:47 | 43.82285 | 152.80719 | 33024 ft | 523 kts | 40° |
| 2026-05-05 19:47 | 43.87201 | 152.88159 | 33023 ft | 523 kts | 40° |
| 2026-05-05 19:48 | 43.92114 | 152.95616 | 33023 ft | 523 kts | 39° |
| 2026-05-05 19:48 | 43.97023 | 153.03085 | 33025 ft | 523 kts | 39° |
| 2026-05-05 19:49 | 44.01891 | 153.10510 | 33019 ft | 523 kts | 40° |
| 2026-05-05 19:49 | 44.06786 | 153.17999 | 33027 ft | 523 kts | 39° |
| 2026-05-05 19:50 | 44.11679 | 153.25503 | 33013 ft | 524 kts | 39° |
| 2026-05-05 19:50 | 44.16573 | 153.33027 | 33013 ft | 524 kts | 39° |
| 2026-05-05 19:51 | 44.21469 | 153.40576 | 32991 ft | 525 kts | 39° |
| 2026-05-05 19:51 | 44.26359 | 153.48135 | 33004 ft | 525 kts | 40° |
| 2026-05-05 19:52 | 44.31253 | 153.55722 | 32993 ft | 526 kts | 40° |
| 2026-05-05 19:52 | 44.36145 | 153.63325 | 33001 ft | 526 kts | 40° |
| 2026-05-05 19:53 | 44.41007 | 153.70904 | 33000 ft | 527 kts | 40° |
| 2026-05-05 19:53 | 44.45913 | 153.78572 | 32992 ft | 528 kts | 40° |
| 2026-05-05 19:54 | 44.50802 | 153.86232 | 33035 ft | 528 kts | 40° |
| 2026-05-05 19:54 | 44.55697 | 153.93924 | 33009 ft | 529 kts | 39° |
| 2026-05-05 19:55 | 44.60593 | 154.01639 | 32985 ft | 529 kts | 39° |
| 2026-05-05 19:55 | 44.65474 | 154.09351 | 32981 ft | 529 kts | 39° |
| 2026-05-05 19:56 | 44.70331 | 154.17044 | 32980 ft | 529 kts | 39° |
| 2026-05-05 19:56 | 44.75239 | 154.24835 | 32978 ft | 528 kts | 39° |
| 2026-05-05 19:57 | 44.80077 | 154.32528 | 32971 ft | 528 kts | 39° |
| 2026-05-05 19:57 | 44.84932 | 154.40268 | 33002 ft | 527 kts | 39° |
| 2026-05-05 19:58 | 44.89673 | 154.48240 | 32958 ft | 529 kts | 40° |
| 2026-05-05 19:58 | 44.94484 | 154.56071 | 32957 ft | 528 kts | 39° |
| 2026-05-05 19:59 | 44.99287 | 154.63933 | 32950 ft | 529 kts | 40° |
| 2026-05-05 19:59 | 45.04077 | 154.71836 | 32979 ft | 529 kts | 40° |
| 2026-05-05 20:00 | 45.08833 | 154.79719 | 32954 ft | 530 kts | 40° |
| 2026-05-05 20:00 | 45.13612 | 154.87670 | 32947 ft | 530 kts | 40° |
| 2026-05-05 20:01 | 45.18388 | 154.95642 | 32946 ft | 530 kts | 40° |
| 2026-05-05 20:01 | 45.23169 | 155.03645 | 32974 ft | 532 kts | 39° |
| 2026-05-05 20:02 | 45.27946 | 155.11663 | 32949 ft | 532 kts | 40° |
| 2026-05-05 20:02 | 45.32721 | 155.19702 | 32942 ft | 532 kts | 40° |
| 2026-05-05 20:03 | 45.37460 | 155.27702 | 32945 ft | 533 kts | 40° |
| 2026-05-05 20:03 | 45.42231 | 155.35779 | 32930 ft | 533 kts | 40° |
| 2026-05-05 20:04 | 45.46990 | 155.43860 | 32928 ft | 533 kts | 40° |
| 2026-05-05 20:04 | 45.51746 | 155.51960 | 32929 ft | 533 kts | 40° |
| 2026-05-05 20:05 | 45.56511 | 155.60094 | 32926 ft | 534 kts | 40° |
| 2026-05-05 20:05 | 45.61241 | 155.68198 | 32931 ft | 535 kts | 40° |
| 2026-05-05 20:06 | 45.65998 | 155.76370 | 32932 ft | 535 kts | 40° |
| 2026-05-05 20:06 | 45.70753 | 155.84560 | 32938 ft | 535 kts | 41° |
| 2026-05-05 20:07 | 45.74699 | 155.91378 | 32932 ft | 535 kts | 41° |
| 2026-05-05 20:07 | 45.79444 | 155.99599 | 32922 ft | 534 kts | 41° |
| 2026-05-05 20:08 | 45.84167 | 156.07805 | 32915 ft | 534 kts | 41° |
| 2026-05-05 20:08 | 45.88895 | 156.16041 | 32916 ft | 534 kts | 41° |
| 2026-05-05 20:09 | 45.93621 | 156.24299 | 32917 ft | 535 kts | 41° |
| 2026-05-05 20:09 | 45.98343 | 156.32575 | 32910 ft | 536 kts | 41° |
| 2026-05-05 20:10 | 46.03067 | 156.40877 | 32914 ft | 537 kts | 41° |
| 2026-05-05 20:10 | 46.07757 | 156.49145 | 32928 ft | 537 kts | 41° |
| 2026-05-05 20:11 | 46.12475 | 156.57491 | 32918 ft | 537 kts | 41° |
| 2026-05-05 20:11 | 46.17197 | 156.65869 | 32918 ft | 537 kts | 41° |
| 2026-05-05 20:12 | 46.21903 | 156.74239 | 32913 ft | 537 kts | 42° |
| 2026-05-05 20:12 | 46.26606 | 156.82633 | 32893 ft | 538 kts | 42° |
| 2026-05-05 20:13 | 46.31301 | 156.91037 | 32895 ft | 538 kts | 42° |
| 2026-05-05 20:13 | 46.35984 | 156.99442 | 32893 ft | 539 kts | 42° |
| 2026-05-05 20:14 | 46.40683 | 157.07905 | 32890 ft | 539 kts | 42° |
| 2026-05-05 20:14 | 46.45376 | 157.16383 | 32886 ft | 539 kts | 43° |
| 2026-05-05 20:15 | 46.50071 | 157.24890 | 32892 ft | 539 kts | 43° |
| 2026-05-05 20:15 | 46.54758 | 157.33404 | 32888 ft | 540 kts | 43° |
| 2026-05-05 20:16 | 46.59441 | 157.41944 | 32927 ft | 540 kts | 43° |
| 2026-05-05 20:16 | 46.64128 | 157.50515 | 32872 ft | 542 kts | 43° |
| 2026-05-05 20:17 | 46.68826 | 157.59129 | 32860 ft | 543 kts | 44° |
| 2026-05-05 20:17 | 46.73512 | 157.67752 | 32871 ft | 543 kts | 44° |
| 2026-05-05 20:18 | 46.78175 | 157.76362 | 32871 ft | 544 kts | 44° |
| 2026-05-05 20:18 | 46.82860 | 157.85036 | 32864 ft | 544 kts | 44° |
| 2026-05-05 20:19 | 46.87548 | 157.93741 | 32854 ft | 545 kts | 45° |
| 2026-05-05 20:19 | 46.92242 | 158.02489 | 32861 ft | 546 kts | 45° |
| 2026-05-05 20:20 | 46.96933 | 158.11257 | 32850 ft | 547 kts | 45° |
| 2026-05-05 20:20 | 47.01597 | 158.20004 | 32857 ft | 548 kts | 46° |
| 2026-05-05 20:21 | 47.06283 | 158.28817 | 32850 ft | 548 kts | 46° |
| 2026-05-05 20:21 | 47.10963 | 158.37650 | 32850 ft | 548 kts | 46° |
| 2026-05-05 20:22 | 47.15631 | 158.46488 | 32850 ft | 548 kts | 46° |
| 2026-05-05 20:22 | 47.20304 | 158.55360 | 32845 ft | 548 kts | 46° |
| 2026-05-05 20:23 | 47.24944 | 158.64205 | 32837 ft | 548 kts | 46° |
| 2026-05-05 20:23 | 47.29637 | 158.73177 | 32839 ft | 549 kts | 46° |
| 2026-05-05 20:24 | 47.34258 | 158.82039 | 32854 ft | 549 kts | 47° |
| 2026-05-05 20:24 | 47.38905 | 158.90979 | 32834 ft | 549 kts | 47° |
| 2026-05-05 20:25 | 47.43546 | 158.99940 | 32832 ft | 549 kts | 47° |
| 2026-05-05 20:25 | 47.48187 | 159.08929 | 32829 ft | 549 kts | 47° |
| 2026-05-05 20:26 | 47.52815 | 159.17922 | 32824 ft | 549 kts | 47° |
| 2026-05-05 20:26 | 47.57414 | 159.26886 | 32824 ft | 549 kts | 47° |
| 2026-05-05 20:27 | 47.62028 | 159.35910 | 32821 ft | 550 kts | 47° |
| 2026-05-05 20:27 | 47.66646 | 159.44971 | 32829 ft | 550 kts | 48° |
| 2026-05-05 20:28 | 47.71252 | 159.54038 | 32826 ft | 549 kts | 48° |
| 2026-05-05 20:28 | 47.75837 | 159.63097 | 32809 ft | 548 kts | 48° |
| 2026-05-05 20:29 | 47.80406 | 159.72153 | 32802 ft | 547 kts | 48° |
| 2026-05-05 20:29 | 47.84970 | 159.81227 | 32805 ft | 547 kts | 49° |
| 2026-05-05 20:30 | 47.89521 | 159.90308 | 32793 ft | 546 kts | 49° |
| 2026-05-05 20:30 | 47.94025 | 159.99326 | 32783 ft | 545 kts | 49° |
| 2026-05-05 20:31 | 47.98550 | 160.08413 | 32780 ft | 546 kts | 49° |
| 2026-05-05 20:31 | 48.03071 | 160.17521 | 32803 ft | 545 kts | 49° |
| 2026-05-05 20:32 | 48.07577 | 160.26634 | 32782 ft | 544 kts | 50° |
| 2026-05-05 20:32 | 48.12067 | 160.35744 | 32776 ft | 543 kts | 50° |
| 2026-05-05 20:33 | 48.16534 | 160.44830 | 32790 ft | 543 kts | 50° |
| 2026-05-05 20:33 | 48.21010 | 160.53952 | 32785 ft | 543 kts | 50° |
| 2026-05-05 20:34 | 48.25478 | 160.63086 | 32777 ft | 543 kts | 50° |
| 2026-05-05 20:34 | 48.27719 | 160.67677 | 33002 ft | 546 kts | 50° |
| 2026-05-05 20:34 | 48.30034 | 160.72198 | 33413 ft | 544 kts | 46° |
| 2026-05-05 20:34 | 48.32523 | 160.76468 | 33822 ft | 543 kts | 44° |
| 2026-05-05 20:35 | 48.35037 | 160.80629 | 34098 ft | 544 kts | 44° |
| 2026-05-05 20:35 | 48.37572 | 160.84847 | 34460 ft | 544 kts | 45° |
| 2026-05-05 20:35 | 48.40094 | 160.89101 | 34791 ft | 544 kts | 45° |
| 2026-05-05 20:35 | 48.42601 | 160.93376 | 35106 ft | 545 kts | 46° |
| 2026-05-05 20:36 | 48.45098 | 160.97662 | 35410 ft | 545 kts | 46° |
| 2026-05-05 20:36 | 48.47599 | 161.01970 | 35715 ft | 545 kts | 46° |
| 2026-05-05 20:36 | 48.50092 | 161.06273 | 36025 ft | 546 kts | 46° |
| 2026-05-05 20:36 | 48.52592 | 161.10597 | 36296 ft | 547 kts | 46° |
| 2026-05-05 20:37 | 48.55086 | 161.14914 | 36559 ft | 548 kts | 46° |
| 2026-05-05 20:37 | 48.56753 | 161.17807 | 36765 ft | 548 kts | 47° |
| 2026-05-05 20:37 | 48.60099 | 161.23626 | 37163 ft | 548 kts | 47° |
| 2026-05-05 20:37 | 48.62596 | 161.27979 | 37444 ft | 548 kts | 47° |
| 2026-05-05 20:38 | 48.65088 | 161.32331 | 37744 ft | 548 kts | 47° |
| 2026-05-05 20:38 | 48.67592 | 161.36712 | 38048 ft | 548 kts | 47° |
| 2026-05-05 20:38 | 48.70086 | 161.41084 | 38371 ft | 548 kts | 47° |
| 2026-05-05 20:38 | 48.72577 | 161.45456 | 38602 ft | 548 kts | 47° |
| 2026-05-05 20:39 | 48.75069 | 161.49837 | 38713 ft | 550 kts | 47° |
| 2026-05-05 20:39 | 48.80036 | 161.58594 | 38727 ft | 543 kts | 47° |
| 2026-05-05 20:40 | 48.84970 | 161.67319 | 38727 ft | 546 kts | 47° |
| 2026-05-05 20:40 | 48.89911 | 161.76085 | 38711 ft | 546 kts | 48° |
| 2026-05-05 20:41 | 48.94854 | 161.84884 | 38712 ft | 546 kts | 48° |
| 2026-05-05 20:41 | 48.99789 | 161.93699 | 38735 ft | 547 kts | 48° |
| 2026-05-05 20:42 | 49.04678 | 162.02462 | 38714 ft | 547 kts | 48° |
| 2026-05-05 20:42 | 49.09597 | 162.11306 | 38697 ft | 546 kts | 48° |
| 2026-05-05 20:43 | 49.14506 | 162.20164 | 38690 ft | 546 kts | 48° |
| 2026-05-05 20:43 | 49.19407 | 162.29036 | 38687 ft | 546 kts | 48° |
| 2026-05-05 20:44 | 49.24301 | 162.37924 | 38683 ft | 545 kts | 49° |
| 2026-05-05 20:44 | 49.29185 | 162.46826 | 38672 ft | 545 kts | 49° |
| 2026-05-05 20:45 | 49.36493 | 162.60201 | 38682 ft | 546 kts | 49° |
| 2026-05-05 20:45 | 49.41330 | 162.69092 | 38666 ft | 545 kts | 49° |
| 2026-05-05 20:46 | 49.46196 | 162.78067 | 38648 ft | 545 kts | 49° |
| 2026-05-05 20:46 | 49.51041 | 162.87031 | 38646 ft | 545 kts | 49° |
| 2026-05-05 20:47 | 49.55878 | 162.96014 | 38651 ft | 544 kts | 49° |
| 2026-05-05 20:47 | 49.60708 | 163.05013 | 38643 ft | 545 kts | 49° |
| 2026-05-05 20:48 | 49.65532 | 163.14031 | 38620 ft | 545 kts | 49° |
| 2026-05-05 20:48 | 49.70326 | 163.23025 | 38644 ft | 545 kts | 50° |
| 2026-05-05 20:49 | 49.74358 | 163.30615 | 38645 ft | 544 kts | 50° |
| 2026-05-05 20:49 | 49.79163 | 163.39686 | 38627 ft | 544 kts | 50° |
| 2026-05-05 20:50 | 49.83912 | 163.48683 | 38622 ft | 544 kts | 50° |
| 2026-05-05 20:50 | 49.88689 | 163.57764 | 38625 ft | 543 kts | 50° |
| 2026-05-05 20:51 | 49.93462 | 163.66869 | 38607 ft | 543 kts | 50° |
| 2026-05-05 20:51 | 49.98231 | 163.76000 | 38593 ft | 544 kts | 50° |
| 2026-05-05 20:52 | 50.02989 | 163.85139 | 38601 ft | 543 kts | 51° |
| 2026-05-05 20:52 | 50.07730 | 163.94277 | 38608 ft | 543 kts | 51° |
| 2026-05-05 20:53 | 50.12465 | 164.03439 | 38602 ft | 542 kts | 51° |
| 2026-05-05 20:53 | 50.17161 | 164.12555 | 38592 ft | 542 kts | 51° |
| 2026-05-05 20:54 | 50.21875 | 164.21737 | 38573 ft | 542 kts | 51° |
| 2026-05-05 20:54 | 50.26584 | 164.30942 | 38578 ft | 542 kts | 51° |
| 2026-05-05 20:55 | 50.31287 | 164.40169 | 38587 ft | 542 kts | 51° |
| 2026-05-05 20:55 | 50.35988 | 164.49423 | 38585 ft | 542 kts | 51° |
| 2026-05-05 20:56 | 50.40675 | 164.58682 | 38567 ft | 542 kts | 52° |
| 2026-05-05 20:56 | 50.45346 | 164.67942 | 38581 ft | 541 kts | 52° |
| 2026-05-05 20:57 | 50.50010 | 164.77225 | 38579 ft | 541 kts | 52° |
| 2026-05-05 20:57 | 50.54662 | 164.86515 | 38573 ft | 541 kts | 52° |
| 2026-05-05 20:58 | 50.59316 | 164.95841 | 38553 ft | 541 kts | 52° |
| 2026-05-05 20:58 | 50.63956 | 165.05170 | 38569 ft | 541 kts | 52° |
| 2026-05-05 20:59 | 50.68560 | 165.14466 | 38563 ft | 542 kts | 52° |
| 2026-05-05 20:59 | 50.73189 | 165.23841 | 38567 ft | 542 kts | 52° |
| 2026-05-05 21:00 | 50.77822 | 165.33261 | 38570 ft | 542 kts | 52° |
| 2026-05-05 21:00 | 50.82453 | 165.42708 | 38553 ft | 543 kts | 53° |
| 2026-05-05 21:01 | 50.87079 | 165.52183 | 38561 ft | 544 kts | 53° |
| 2026-05-05 21:01 | 50.91705 | 165.61690 | 38568 ft | 545 kts | 53° |
| 2026-05-05 21:02 | 50.96330 | 165.71230 | 38572 ft | 546 kts | 53° |
| 2026-05-05 21:02 | 51.00958 | 165.80811 | 38558 ft | 546 kts | 53° |
| 2026-05-05 21:03 | 51.05550 | 165.90354 | 38553 ft | 547 kts | 53° |
| 2026-05-05 21:03 | 51.10166 | 165.99982 | 38556 ft | 547 kts | 53° |
| 2026-05-05 21:04 | 51.14771 | 166.09623 | 38560 ft | 547 kts | 53° |
| 2026-05-05 21:04 | 51.19373 | 166.19291 | 38554 ft | 547 kts | 54° |
| 2026-05-05 21:05 | 51.23991 | 166.29033 | 38561 ft | 547 kts | 54° |
| 2026-05-05 21:05 | 51.28537 | 166.38655 | 38568 ft | 546 kts | 54° |
| 2026-05-05 21:06 | 51.33103 | 166.48358 | 38553 ft | 545 kts | 54° |
| 2026-05-05 21:06 | 51.37657 | 166.58069 | 38540 ft | 545 kts | 54° |
| 2026-05-05 21:07 | 51.42192 | 166.67779 | 38541 ft | 544 kts | 54° |
| 2026-05-05 21:07 | 51.46719 | 166.77510 | 38531 ft | 544 kts | 54° |
| 2026-05-05 21:08 | 51.51240 | 166.87262 | 38535 ft | 544 kts | 54° |
| 2026-05-05 21:08 | 51.55748 | 166.97023 | 38523 ft | 544 kts | 54° |
| 2026-05-05 21:09 | 51.60254 | 167.06817 | 38539 ft | 544 kts | 54° |
| 2026-05-05 21:09 | 51.64748 | 167.16621 | 38539 ft | 545 kts | 54° |
| 2026-05-05 21:10 | 51.69244 | 167.26467 | 38538 ft | 545 kts | 55° |
| 2026-05-05 21:10 | 51.73728 | 167.36326 | 38535 ft | 545 kts | 55° |
| 2026-05-05 21:11 | 51.78209 | 167.46214 | 38539 ft | 545 kts | 55° |
| 2026-05-05 21:11 | 51.82685 | 167.56130 | 38527 ft | 546 kts | 55° |
| 2026-05-05 21:12 | 51.87158 | 167.66078 | 38532 ft | 546 kts | 55° |
| 2026-05-05 21:12 | 51.91614 | 167.76027 | 38530 ft | 545 kts | 55° |
| 2026-05-05 21:13 | 51.96060 | 167.85990 | 38526 ft | 545 kts | 55° |
| 2026-05-05 21:13 | 52.00471 | 167.95915 | 38525 ft | 545 kts | 56° |
| 2026-05-05 21:14 | 52.04896 | 168.05909 | 38530 ft | 545 kts | 56° |
| 2026-05-05 21:14 | 52.09324 | 168.15949 | 38502 ft | 545 kts | 56° |
| 2026-05-05 21:15 | 52.13730 | 168.25979 | 38525 ft | 544 kts | 56° |
| 2026-05-05 21:15 | 52.18099 | 168.35964 | 38531 ft | 544 kts | 56° |
| 2026-05-05 21:16 | 52.22483 | 168.46021 | 38547 ft | 544 kts | 56° |
| 2026-05-05 21:16 | 52.26865 | 168.56112 | 38534 ft | 543 kts | 56° |
| 2026-05-05 21:17 | 52.31227 | 168.66199 | 38527 ft | 542 kts | 56° |
| 2026-05-05 21:17 | 52.35572 | 168.76287 | 38521 ft | 542 kts | 56° |
| 2026-05-05 21:18 | 52.39903 | 168.86379 | 38522 ft | 541 kts | 56° |
| 2026-05-05 21:18 | 52.44225 | 168.96494 | 38520 ft | 541 kts | 57° |
| 2026-05-05 21:19 | 52.48538 | 169.06625 | 38517 ft | 541 kts | 57° |
| 2026-05-05 21:19 | 52.52817 | 169.16715 | 38535 ft | 541 kts | 57° |
| 2026-05-05 21:20 | 52.57113 | 169.26887 | 38534 ft | 541 kts | 57° |
| 2026-05-05 21:20 | 52.61389 | 169.37054 | 38538 ft | 540 kts | 57° |
| 2026-05-05 21:21 | 52.65649 | 169.47220 | 38520 ft | 539 kts | 57° |
| 2026-05-05 21:21 | 52.69874 | 169.57345 | 38534 ft | 540 kts | 57° |
| 2026-05-05 21:22 | 52.74128 | 169.67580 | 38545 ft | 541 kts | 57° |
| 2026-05-05 21:22 | 52.78389 | 169.77859 | 38562 ft | 542 kts | 57° |
| 2026-05-05 21:23 | 52.82640 | 169.88141 | 38581 ft | 541 kts | 58° |
| 2026-05-05 21:23 | 52.86869 | 169.98406 | 38577 ft | 540 kts | 58° |
| 2026-05-05 21:24 | 52.91066 | 170.08638 | 38565 ft | 539 kts | 58° |
| 2026-05-05 21:24 | 52.95990 | 170.18001 | 38558 ft | 542 kts | 41° |
| 2026-05-05 21:25 | 53.01929 | 170.25745 | 38572 ft | 543 kts | 39° |
| 2026-05-05 21:25 | 53.07900 | 170.33431 | 38583 ft | 543 kts | 38° |
| 2026-05-05 21:26 | 53.13897 | 170.41107 | 38600 ft | 543 kts | 38° |
| 2026-05-05 21:26 | 53.19898 | 170.48797 | 38597 ft | 546 kts | 38° |
| 2026-05-05 21:27 | 53.25907 | 170.56523 | 38615 ft | 542 kts | 38° |
| 2026-05-05 21:27 | 53.31896 | 170.64250 | 38615 ft | 545 kts | 39° |
| 2026-05-05 21:28 | 53.37843 | 170.71954 | 38598 ft | 538 kts | 39° |
| 2026-05-05 21:28 | 53.42767 | 170.78360 | 38627 ft | 537 kts | 39° |
| 2026-05-05 21:29 | 53.49673 | 170.87390 | 38627 ft | 544 kts | 39° |
| 2026-05-05 21:29 | 53.54655 | 170.93924 | 38637 ft | 539 kts | 39° |
| 2026-05-05 21:30 | 53.60619 | 171.01776 | 38639 ft | 547 kts | 39° |
| 2026-05-05 21:30 | 53.66533 | 171.09587 | 38658 ft | 539 kts | 39° |
| 2026-05-05 21:31 | 53.72413 | 171.17382 | 38657 ft | 536 kts | 39° |
| 2026-05-05 21:31 | 53.78324 | 171.25252 | 38671 ft | 546 kts | 39° |
| 2026-05-05 21:32 | 53.84266 | 171.33188 | 38673 ft | 543 kts | 39° |
| 2026-05-05 21:32 | 53.90198 | 171.41141 | 38690 ft | 543 kts | 39° |
| 2026-05-05 21:33 | 53.96085 | 171.49061 | 38695 ft | 540 kts | 40° |
| 2026-05-05 21:33 | 54.01939 | 171.56967 | 38680 ft | 538 kts | 40° |
| 2026-05-05 21:34 | 54.07778 | 171.64887 | 38705 ft | 538 kts | 40° |
| 2026-05-05 21:34 | 54.13601 | 171.72812 | 38708 ft | 538 kts | 40° |
| 2026-05-05 21:35 | 54.19496 | 171.80863 | 38726 ft | 540 kts | 40° |
| 2026-05-05 21:35 | 54.25276 | 171.88783 | 38730 ft | 531 kts | 40° |
| 2026-05-05 21:36 | 54.31027 | 171.96698 | 38750 ft | 534 kts | 40° |
| 2026-05-05 21:36 | 54.36841 | 172.04735 | 38751 ft | 537 kts | 40° |
| 2026-05-05 21:37 | 54.42638 | 172.12769 | 38768 ft | 538 kts | 40° |
| 2026-05-05 21:37 | 54.48471 | 172.20883 | 38766 ft | 535 kts | 40° |
| 2026-05-05 21:38 | 54.54210 | 172.28898 | 38783 ft | 533 kts | 40° |
| 2026-05-05 21:38 | 54.59965 | 172.36968 | 38781 ft | 536 kts | 40° |
| 2026-05-05 21:39 | 54.65786 | 172.45164 | 38769 ft | 538 kts | 40° |
| 2026-05-05 21:39 | 54.71543 | 172.53295 | 38808 ft | 537 kts | 40° |
| 2026-05-05 21:40 | 54.77321 | 172.61487 | 38811 ft | 535 kts | 40° |
| 2026-05-05 21:40 | 54.83083 | 172.69688 | 38824 ft | 533 kts | 40° |
| 2026-05-05 21:41 | 54.88805 | 172.77867 | 38828 ft | 535 kts | 41° |
| 2026-05-05 21:41 | 54.94565 | 172.86131 | 38845 ft | 536 kts | 41° |
| 2026-05-05 21:42 | 55.00281 | 172.94364 | 38846 ft | 535 kts | 40° |
| 2026-05-05 21:42 | 55.06005 | 173.02635 | 38864 ft | 533 kts | 40° |
| 2026-05-05 21:43 | 55.11700 | 173.10897 | 38864 ft | 532 kts | 41° |
| 2026-05-05 21:43 | 55.17387 | 173.19181 | 38881 ft | 532 kts | 41° |
| 2026-05-05 21:44 | 55.23115 | 173.27556 | 38882 ft | 532 kts | 41° |
| 2026-05-05 21:44 | 55.28762 | 173.35845 | 38883 ft | 532 kts | 41° |
| 2026-05-05 21:45 | 55.34438 | 173.44211 | 38892 ft | 532 kts | 40° |
| 2026-05-05 21:45 | 55.40099 | 173.52583 | 38908 ft | 532 kts | 41° |
| 2026-05-05 21:46 | 55.45758 | 173.60986 | 38923 ft | 532 kts | 41° |
| 2026-05-05 21:46 | 55.51410 | 173.69412 | 38919 ft | 532 kts | 41° |
| 2026-05-05 21:47 | 55.57064 | 173.77874 | 38940 ft | 531 kts | 41° |
| 2026-05-05 21:47 | 55.62690 | 173.86327 | 38904 ft | 530 kts | 41° |
| 2026-05-05 21:48 | 55.68268 | 173.94742 | 38965 ft | 529 kts | 41° |
| 2026-05-05 21:48 | 55.73858 | 174.03204 | 38957 ft | 528 kts | 41° |
| 2026-05-05 21:49 | 55.79450 | 174.11704 | 38944 ft | 528 kts | 41° |
| 2026-05-05 21:49 | 55.85024 | 174.20210 | 38955 ft | 527 kts | 41° |
| 2026-05-05 21:50 | 55.90578 | 174.28720 | 38948 ft | 526 kts | 41° |
| 2026-05-05 21:50 | 55.96090 | 174.37198 | 38963 ft | 525 kts | 41° |
| 2026-05-05 21:51 | 56.01625 | 174.45746 | 38973 ft | 525 kts | 41° |
| 2026-05-05 21:51 | 56.07152 | 174.54312 | 38963 ft | 525 kts | 41° |
| 2026-05-05 21:52 | 56.15433 | 174.67213 | 38972 ft | 525 kts | 41° |
| 2026-05-05 21:53 | 56.20948 | 174.75847 | 39007 ft | 525 kts | 41° |
| 2026-05-05 21:53 | 56.26416 | 174.84441 | 38992 ft | 525 kts | 41° |
| 2026-05-05 21:54 | 56.31916 | 174.93120 | 38989 ft | 525 kts | 41° |
| 2026-05-05 21:54 | 56.37401 | 175.01810 | 39006 ft | 525 kts | 41° |
| 2026-05-05 21:55 | 56.42886 | 175.10535 | 39010 ft | 525 kts | 41° |
| 2026-05-05 21:55 | 56.48360 | 175.19278 | 39028 ft | 525 kts | 41° |
| 2026-05-05 21:56 | 56.53832 | 175.28052 | 39022 ft | 525 kts | 42° |
| 2026-05-05 21:56 | 56.59297 | 175.36850 | 39002 ft | 525 kts | 41° |
| 2026-05-05 21:57 | 56.64749 | 175.45666 | 39032 ft | 524 kts | 41° |
| 2026-05-05 21:57 | 56.70196 | 175.54503 | 39036 ft | 525 kts | 41° |
| 2026-05-05 21:58 | 56.75635 | 175.63365 | 39046 ft | 525 kts | 41° |
| 2026-05-05 21:58 | 56.81068 | 175.72254 | 39053 ft | 524 kts | 42° |
| 2026-05-05 21:59 | 56.86485 | 175.81154 | 39064 ft | 524 kts | 42° |
| 2026-05-05 21:59 | 56.91906 | 175.90097 | 39049 ft | 524 kts | 41° |
| 2026-05-05 22:00 | 56.97307 | 175.99045 | 39060 ft | 523 kts | 41° |
| 2026-05-05 22:00 | 57.02707 | 176.08022 | 39073 ft | 523 kts | 41° |
| 2026-05-05 22:01 | 57.08101 | 176.17030 | 39081 ft | 523 kts | 41° |
| 2026-05-05 22:01 | 57.13480 | 176.26048 | 39089 ft | 523 kts | 42° |
| 2026-05-05 22:02 | 57.18850 | 176.35090 | 39086 ft | 522 kts | 42° |
| 2026-05-05 22:02 | 57.24176 | 176.44094 | 39081 ft | 522 kts | 42° |
| 2026-05-05 22:03 | 57.29525 | 176.53176 | 39093 ft | 522 kts | 41° |
| 2026-05-05 22:03 | 57.34829 | 176.62216 | 39108 ft | 521 kts | 41° |
| 2026-05-05 22:04 | 57.40156 | 176.71333 | 39105 ft | 521 kts | 41° |
| 2026-05-05 22:04 | 57.45476 | 176.80475 | 39105 ft | 521 kts | 42° |
| 2026-05-05 22:05 | 57.50756 | 176.89588 | 39115 ft | 520 kts | 42° |
| 2026-05-05 22:05 | 57.56054 | 176.98769 | 39113 ft | 520 kts | 42° |
| 2026-05-05 22:06 | 57.61331 | 177.07957 | 39118 ft | 519 kts | 41° |
| 2026-05-05 22:06 | 57.66601 | 177.17163 | 39145 ft | 518 kts | 41° |
| 2026-05-05 22:07 | 57.71849 | 177.26372 | 39137 ft | 517 kts | 42° |
| 2026-05-05 22:07 | 57.77087 | 177.35602 | 39136 ft | 516 kts | 42° |
| 2026-05-05 22:08 | 57.82299 | 177.44825 | 39131 ft | 515 kts | 42° |
| 2026-05-05 22:08 | 57.86622 | 177.52503 | 39123 ft | 514 kts | 42° |
| 2026-05-05 22:09 | 57.91810 | 177.61756 | 39137 ft | 514 kts | 42° |
| 2026-05-05 22:09 | 57.96993 | 177.71035 | 39137 ft | 513 kts | 42° |
| 2026-05-05 22:10 | 58.02163 | 177.80332 | 39146 ft | 513 kts | 42° |
| 2026-05-05 22:10 | 58.07322 | 177.89647 | 39139 ft | 513 kts | 42° |
| 2026-05-05 22:11 | 58.12481 | 177.99001 | 39142 ft | 513 kts | 42° |
| 2026-05-05 22:11 | 58.17598 | 178.08320 | 39152 ft | 513 kts | 42° |
| 2026-05-05 22:12 | 58.22742 | 178.17730 | 39179 ft | 513 kts | 42° |
| 2026-05-05 22:12 | 58.27867 | 178.27142 | 39183 ft | 512 kts | 42° |
| 2026-05-05 22:13 | 58.32982 | 178.36573 | 39184 ft | 511 kts | 42° |
| 2026-05-05 22:13 | 58.38082 | 178.46019 | 39165 ft | 510 kts | 42° |
| 2026-05-05 22:14 | 58.43168 | 178.55479 | 39160 ft | 510 kts | 42° |
| 2026-05-05 22:14 | 58.48238 | 178.64949 | 39184 ft | 509 kts | 42° |
| 2026-05-05 22:15 | 58.53291 | 178.74429 | 39176 ft | 508 kts | 42° |
| 2026-05-05 22:15 | 58.58326 | 178.83919 | 39176 ft | 507 kts | 42° |
| 2026-05-05 22:16 | 58.63355 | 178.93431 | 39170 ft | 507 kts | 42° |
| 2026-05-05 22:16 | 58.68342 | 179.02906 | 39170 ft | 507 kts | 42° |
| 2026-05-05 22:17 | 58.73348 | 179.12457 | 39169 ft | 506 kts | 42° |
| 2026-05-05 22:17 | 58.78345 | 179.22035 | 39170 ft | 507 kts | 42° |
| 2026-05-05 22:18 | 58.83342 | 179.31651 | 39175 ft | 507 kts | 42° |
| 2026-05-05 22:18 | 58.88332 | 179.41299 | 39168 ft | 508 kts | 42° |
| 2026-05-05 22:19 | 58.93292 | 179.50927 | 39176 ft | 508 kts | 42° |
| 2026-05-05 22:19 | 58.98275 | 179.60641 | 39180 ft | 509 kts | 42° |
| 2026-05-05 22:20 | 59.03265 | 179.70415 | 39184 ft | 509 kts | 42° |
| 2026-05-05 22:20 | 59.08250 | 179.80221 | 39205 ft | 509 kts | 42° |
| 2026-05-05 22:21 | 59.13218 | 179.90036 | 39197 ft | 508 kts | 42° |
| 2026-05-05 22:21 | 59.18165 | 179.99853 | 39191 ft | 507 kts | 43° |
| 2026-05-05 22:22 | 59.23102 | -179.90307 | 39189 ft | 506 kts | 43° |
| 2026-05-05 22:22 | 59.27984 | -179.80536 | 39180 ft | 505 kts | 43° |
| 2026-05-05 22:23 | 59.32881 | -179.70691 | 39183 ft | 504 kts | 43° |
| 2026-05-05 22:23 | 59.37765 | -179.60828 | 39170 ft | 504 kts | 43° |
| 2026-05-05 22:24 | 59.42643 | -179.50933 | 39166 ft | 504 kts | 43° |
| 2026-05-05 22:24 | 59.47491 | -179.41057 | 39180 ft | 504 kts | 43° |
| 2026-05-05 22:25 | 59.52354 | -179.31106 | 39191 ft | 505 kts | 43° |
| 2026-05-05 22:25 | 59.57227 | -179.21090 | 39189 ft | 505 kts | 43° |
| 2026-05-05 22:26 | 59.62097 | -179.11035 | 39187 ft | 506 kts | 43° |
| 2026-05-05 22:26 | 59.66986 | -179.00895 | 39190 ft | 506 kts | 43° |
| 2026-05-05 22:27 | 59.71836 | -178.90790 | 39190 ft | 506 kts | 43° |
| 2026-05-05 22:27 | 59.76681 | -178.80652 | 39193 ft | 506 kts | 44° |
| 2026-05-05 22:28 | 59.81486 | -178.70550 | 39191 ft | 506 kts | 44° |
| 2026-05-05 22:28 | 59.86304 | -178.60377 | 39192 ft | 505 kts | 44° |
| 2026-05-05 22:29 | 59.91112 | -178.50184 | 39197 ft | 504 kts | 44° |
| 2026-05-05 22:29 | 59.95906 | -178.39994 | 39192 ft | 503 kts | 44° |
| 2026-05-05 22:30 | 60.00684 | -178.29798 | 39181 ft | 502 kts | 44° |
| 2026-05-05 22:30 | 60.05412 | -178.19663 | 39175 ft | 501 kts | 44° |
| 2026-05-05 22:31 | 60.10158 | -178.09442 | 39166 ft | 500 kts | 44° |
| 2026-05-05 22:31 | 60.14892 | -177.99201 | 39172 ft | 500 kts | 44° |
| 2026-05-05 22:32 | 60.19624 | -177.88920 | 39176 ft | 501 kts | 44° |
| 2026-05-05 22:32 | 60.24793 | -177.79704 | 39172 ft | 495 kts | 34° |
| 2026-05-05 22:33 | 60.30200 | -177.71218 | 39171 ft | 496 kts | 35° |
| 2026-05-05 22:33 | 60.35419 | -177.62728 | 39173 ft | 497 kts | 36° |
| 2026-05-05 22:34 | 60.40799 | -177.53803 | 39174 ft | 497 kts | 36° |
| 2026-05-05 22:34 | 60.46107 | -177.44942 | 39176 ft | 498 kts | 36° |
| 2026-05-05 22:35 | 60.51459 | -177.35964 | 39177 ft | 498 kts | 36° |
| 2026-05-05 22:35 | 60.56791 | -177.26967 | 39181 ft | 498 kts | 36° |
| 2026-05-05 22:36 | 60.62123 | -177.17928 | 39169 ft | 498 kts | 36° |
| 2026-05-05 22:36 | 60.67452 | -177.08854 | 39168 ft | 498 kts | 37° |
| 2026-05-05 22:37 | 60.72771 | -176.99756 | 39175 ft | 498 kts | 37° |
| 2026-05-05 22:37 | 60.78047 | -176.90692 | 39164 ft | 499 kts | 37° |
| 2026-05-05 22:38 | 60.83352 | -176.81536 | 39156 ft | 498 kts | 37° |
| 2026-05-05 22:38 | 60.88655 | -176.72342 | 39155 ft | 499 kts | 37° |
| 2026-05-05 22:39 | 60.93959 | -176.63107 | 39159 ft | 499 kts | 37° |
| 2026-05-05 22:39 | 60.99253 | -176.53847 | 39159 ft | 499 kts | 37° |
| 2026-05-05 22:40 | 61.04537 | -176.44561 | 39162 ft | 499 kts | 37° |
| 2026-05-05 22:40 | 61.09810 | -176.35252 | 39153 ft | 498 kts | 37° |
| 2026-05-05 22:41 | 61.15042 | -176.25974 | 39148 ft | 498 kts | 37° |
| 2026-05-05 22:41 | 61.20299 | -176.16610 | 39151 ft | 498 kts | 37° |
| 2026-05-05 22:42 | 61.25544 | -176.07224 | 39153 ft | 498 kts | 37° |
| 2026-05-05 22:42 | 61.30784 | -175.97806 | 39144 ft | 498 kts | 38° |
| 2026-05-05 22:43 | 61.36020 | -175.88348 | 39141 ft | 497 kts | 38° |
| 2026-05-05 22:43 | 61.41243 | -175.78873 | 39149 ft | 497 kts | 38° |
| 2026-05-05 22:44 | 61.46460 | -175.69364 | 39147 ft | 497 kts | 38° |
| 2026-05-05 22:44 | 61.51628 | -175.59901 | 39136 ft | 497 kts | 38° |
| 2026-05-05 22:45 | 61.56826 | -175.50338 | 39148 ft | 497 kts | 38° |
| 2026-05-05 22:45 | 61.62011 | -175.40756 | 39130 ft | 497 kts | 38° |
| 2026-05-05 22:46 | 61.67193 | -175.31134 | 39133 ft | 497 kts | 38° |
| 2026-05-05 22:46 | 61.72372 | -175.21474 | 39132 ft | 497 kts | 38° |
| 2026-05-05 22:47 | 61.77538 | -175.11792 | 39130 ft | 497 kts | 39° |
| 2026-05-05 22:47 | 61.82704 | -175.02065 | 39129 ft | 497 kts | 39° |
| 2026-05-05 22:48 | 61.87864 | -174.92305 | 39119 ft | 498 kts | 39° |
| 2026-05-05 22:48 | 61.93025 | -174.82494 | 39121 ft | 498 kts | 39° |
| 2026-05-05 22:49 | 61.98186 | -174.72638 | 39124 ft | 499 kts | 39° |
| 2026-05-05 22:49 | 62.03335 | -174.62757 | 39127 ft | 499 kts | 39° |
| 2026-05-05 22:50 | 62.07627 | -174.54485 | 39124 ft | 499 kts | 39° |
| 2026-05-05 22:50 | 62.12776 | -174.44518 | 39129 ft | 500 kts | 39° |
| 2026-05-05 22:51 | 62.17949 | -174.34457 | 39127 ft | 500 kts | 39° |
| 2026-05-05 22:51 | 62.23056 | -174.24476 | 39128 ft | 500 kts | 40° |
| 2026-05-05 22:52 | 62.28183 | -174.14406 | 39129 ft | 500 kts | 40° |
| 2026-05-05 22:52 | 62.33310 | -174.04289 | 39122 ft | 499 kts | 40° |
| 2026-05-05 22:53 | 62.38423 | -173.94150 | 39122 ft | 499 kts | 40° |
| 2026-05-05 22:53 | 62.43534 | -173.83966 | 39117 ft | 499 kts | 40° |
| 2026-05-05 22:54 | 62.48626 | -173.73770 | 39118 ft | 499 kts | 40° |
| 2026-05-05 22:54 | 62.53720 | -173.63520 | 39102 ft | 499 kts | 40° |
| 2026-05-05 22:55 | 62.58801 | -173.53245 | 39109 ft | 499 kts | 40° |
| 2026-05-05 22:55 | 62.63876 | -173.42934 | 39103 ft | 499 kts | 40° |
| 2026-05-05 22:56 | 62.68946 | -173.32582 | 39116 ft | 500 kts | 40° |
| 2026-05-05 22:56 | 62.74014 | -173.22183 | 39114 ft | 500 kts | 40° |
| 2026-05-05 22:57 | 62.79077 | -173.11740 | 39115 ft | 500 kts | 40° |
| 2026-05-05 22:57 | 62.84128 | -173.01272 | 39111 ft | 500 kts | 40° |
| 2026-05-05 22:58 | 62.89139 | -172.90835 | 39109 ft | 500 kts | 41° |
| 2026-05-05 22:58 | 62.94182 | -172.80280 | 39105 ft | 500 kts | 41° |
| 2026-05-05 22:59 | 62.99211 | -172.69700 | 39107 ft | 500 kts | 41° |
| 2026-05-05 22:59 | 63.04234 | -172.59080 | 39105 ft | 500 kts | 41° |
| 2026-05-05 23:00 | 63.11748 | -172.43092 | 39111 ft | 500 kts | 41° |
| 2026-05-05 23:00 | 63.16740 | -172.32403 | 39105 ft | 499 kts | 41° |
| 2026-05-05 23:01 | 63.21723 | -172.21680 | 39097 ft | 499 kts | 41° |
| 2026-05-05 23:01 | 63.26701 | -172.10913 | 39101 ft | 499 kts | 41° |
| 2026-05-05 23:02 | 63.31657 | -172.00138 | 39095 ft | 498 kts | 41° |
| 2026-05-05 23:02 | 63.36607 | -171.89323 | 39093 ft | 498 kts | 41° |
| 2026-05-05 23:03 | 63.41520 | -171.78531 | 39086 ft | 498 kts | 41° |
| 2026-05-05 23:03 | 63.46417 | -171.67724 | 39085 ft | 498 kts | 41° |
| 2026-05-05 23:04 | 63.51341 | -171.56799 | 39085 ft | 499 kts | 41° |
| 2026-05-05 23:04 | 63.56262 | -171.45822 | 39083 ft | 499 kts | 41° |
| 2026-05-05 23:05 | 63.61196 | -171.34763 | 39079 ft | 499 kts | 42° |
| 2026-05-05 23:05 | 63.66069 | -171.23782 | 39078 ft | 499 kts | 42° |
| 2026-05-05 23:06 | 63.71007 | -171.12597 | 39075 ft | 499 kts | 42° |
| 2026-05-05 23:06 | 63.75907 | -171.01441 | 39075 ft | 500 kts | 42° |
| 2026-05-05 23:07 | 63.80794 | -170.90253 | 39085 ft | 500 kts | 42° |
| 2026-05-05 23:07 | 63.85650 | -170.79080 | 39077 ft | 500 kts | 42° |
| 2026-05-05 23:08 | 63.90524 | -170.67806 | 39078 ft | 500 kts | 42° |
| 2026-05-05 23:08 | 63.95396 | -170.56478 | 39099 ft | 500 kts | 43° |
| 2026-05-05 23:09 | 64.00255 | -170.45120 | 39066 ft | 499 kts | 43° |
| 2026-05-05 23:09 | 64.05089 | -170.33759 | 39077 ft | 499 kts | 43° |
| 2026-05-05 23:10 | 64.09878 | -170.22446 | 39067 ft | 498 kts | 43° |
| 2026-05-05 23:10 | 64.14685 | -170.11028 | 39064 ft | 497 kts | 43° |
| 2026-05-05 23:11 | 64.19480 | -169.99579 | 39063 ft | 497 kts | 43° |
| 2026-05-05 23:11 | 64.24267 | -169.88089 | 39060 ft | 497 kts | 43° |
| 2026-05-05 23:12 | 64.29044 | -169.76560 | 39059 ft | 497 kts | 43° |
| 2026-05-05 23:12 | 64.33785 | -169.65058 | 39067 ft | 498 kts | 43° |
| 2026-05-05 23:13 | 64.38554 | -169.53424 | 39072 ft | 498 kts | 43° |
| 2026-05-05 23:13 | 64.43310 | -169.41760 | 39072 ft | 498 kts | 44° |
| 2026-05-05 23:14 | 64.48051 | -169.30068 | 39066 ft | 498 kts | 44° |
| 2026-05-05 23:14 | 64.52789 | -169.18322 | 39067 ft | 498 kts | 44° |
| 2026-05-05 23:15 | 64.57511 | -169.06549 | 39059 ft | 498 kts | 44° |
| 2026-05-05 23:15 | 64.62231 | -168.94720 | 39053 ft | 498 kts | 44° |
| 2026-05-05 23:16 | 64.66916 | -168.82911 | 39052 ft | 499 kts | 44° |
| 2026-05-05 23:16 | 64.71624 | -168.70980 | 39063 ft | 499 kts | 44° |
| 2026-05-05 23:17 | 64.76327 | -168.58996 | 39048 ft | 499 kts | 44° |
| 2026-05-05 23:17 | 64.80988 | -168.47069 | 39051 ft | 499 kts | 44° |
| 2026-05-05 23:18 | 64.85671 | -168.35042 | 39058 ft | 499 kts | 45° |
| 2026-05-05 23:18 | 64.90351 | -168.22962 | 39060 ft | 499 kts | 45° |
| 2026-05-05 23:19 | 64.95199 | -168.11306 | 39046 ft | 495 kts | 36° |
| 2026-05-05 23:19 | 65.01057 | -168.03088 | 39061 ft | 487 kts | 19° |
| 2026-05-05 23:20 | 65.07510 | -167.98477 | 39046 ft | 484 kts | 11° |
| 2026-05-05 23:20 | 65.14052 | -167.94530 | 39058 ft | 484 kts | 12° |
| 2026-05-05 23:21 | 65.20593 | -167.90640 | 39044 ft | 485 kts | 11° |
| 2026-05-05 23:21 | 65.27151 | -167.86781 | 39048 ft | 485 kts | 11° |
| 2026-05-05 23:22 | 65.33710 | -167.82913 | 39053 ft | 486 kts | 11° |
| 2026-05-05 23:22 | 65.40279 | -167.79018 | 39058 ft | 486 kts | 11° |
| 2026-05-05 23:23 | 65.46846 | -167.75103 | 39057 ft | 487 kts | 11° |
| 2026-05-05 23:23 | 65.53426 | -167.71160 | 39061 ft | 487 kts | 11° |
| 2026-05-05 23:24 | 65.60011 | -167.67193 | 39063 ft | 487 kts | 12° |
| 2026-05-05 23:24 | 65.66597 | -167.63205 | 39062 ft | 488 kts | 12° |
| 2026-05-05 23:25 | 65.73182 | -167.59197 | 39062 ft | 487 kts | 12° |
| 2026-05-05 23:25 | 65.79728 | -167.55191 | 39052 ft | 488 kts | 12° |
| 2026-05-05 23:26 | 65.86324 | -167.51133 | 39055 ft | 488 kts | 12° |
| 2026-05-05 23:26 | 65.92913 | -167.47052 | 39050 ft | 488 kts | 12° |
| 2026-05-05 23:27 | 65.99492 | -167.42952 | 39045 ft | 488 kts | 12° |
| 2026-05-05 23:27 | 66.06079 | -167.38824 | 39061 ft | 488 kts | 12° |
| 2026-05-05 23:28 | 66.12631 | -167.34696 | 39037 ft | 489 kts | 12° |
| 2026-05-05 23:28 | 66.19219 | -167.30523 | 39039 ft | 489 kts | 12° |
| 2026-05-05 23:29 | 66.25818 | -167.26321 | 39041 ft | 489 kts | 12° |
| 2026-05-05 23:29 | 66.31303 | -167.22810 | 39042 ft | 490 kts | 12° |
| 2026-05-05 23:30 | 66.37904 | -167.18565 | 39055 ft | 490 kts | 12° |
| 2026-05-05 23:30 | 66.44527 | -167.14282 | 39037 ft | 491 kts | 12° |
| 2026-05-05 23:31 | 66.51146 | -167.09978 | 39036 ft | 491 kts | 12° |
| 2026-05-05 23:31 | 66.57762 | -167.05652 | 39039 ft | 492 kts | 12° |
| 2026-05-05 23:32 | 66.64387 | -167.01297 | 39041 ft | 492 kts | 12° |
| 2026-05-05 23:32 | 66.71013 | -166.96917 | 39031 ft | 493 kts | 12° |
| 2026-05-05 23:33 | 66.77646 | -166.92507 | 39041 ft | 493 kts | 12° |
| 2026-05-05 23:33 | 66.84240 | -166.88099 | 39041 ft | 493 kts | 12° |
| 2026-05-05 23:34 | 66.90873 | -166.83640 | 39042 ft | 493 kts | 13° |
| 2026-05-05 23:34 | 66.97515 | -166.79149 | 39043 ft | 494 kts | 13° |
| 2026-05-05 23:35 | 67.04168 | -166.74627 | 39032 ft | 494 kts | 13° |
| 2026-05-05 23:35 | 67.10833 | -166.70070 | 39033 ft | 495 kts | 13° |
| 2026-05-05 23:36 | 67.17452 | -166.65518 | 39031 ft | 495 kts | 13° |
| 2026-05-05 23:36 | 67.24109 | -166.60914 | 39034 ft | 495 kts | 13° |
| 2026-05-05 23:37 | 67.30766 | -166.56284 | 39032 ft | 495 kts | 13° |
| 2026-05-05 23:37 | 67.37431 | -166.51623 | 39026 ft | 496 kts | 13° |
| 2026-05-05 23:38 | 67.44095 | -166.46933 | 39027 ft | 496 kts | 13° |
| 2026-05-05 23:38 | 67.50773 | -166.42207 | 39028 ft | 497 kts | 13° |
| 2026-05-05 23:39 | 67.57413 | -166.37480 | 39030 ft | 497 kts | 13° |
| 2026-05-05 23:39 | 67.64093 | -166.32697 | 39034 ft | 498 kts | 13° |
| 2026-05-05 23:40 | 67.70782 | -166.27880 | 39024 ft | 498 kts | 13° |
| 2026-05-05 23:40 | 67.77473 | -166.23032 | 39019 ft | 499 kts | 13° |
| 2026-05-05 23:41 | 67.84213 | -166.18118 | 39029 ft | 499 kts | 13° |
| 2026-05-05 23:41 | 67.90907 | -166.13210 | 39030 ft | 499 kts | 13° |
| 2026-05-05 23:42 | 67.97569 | -166.08297 | 39030 ft | 500 kts | 13° |
| 2026-05-05 23:42 | 68.04262 | -166.03330 | 39024 ft | 500 kts | 14° |
| 2026-05-05 23:43 | 68.10958 | -165.98331 | 39025 ft | 499 kts | 14° |
| 2026-05-05 23:43 | 68.17654 | -165.93303 | 39024 ft | 499 kts | 14° |
| 2026-05-05 23:44 | 68.24352 | -165.88242 | 39022 ft | 499 kts | 14° |
| 2026-05-05 23:44 | 68.31053 | -165.83149 | 39008 ft | 500 kts | 14° |
| 2026-05-05 23:45 | 68.37751 | -165.78025 | 39009 ft | 500 kts | 14° |
| 2026-05-05 23:45 | 68.44415 | -165.72897 | 39009 ft | 500 kts | 14° |
| 2026-05-05 23:46 | 68.51110 | -165.67713 | 39012 ft | 501 kts | 14° |
| 2026-05-05 23:46 | 68.57813 | -165.62491 | 39012 ft | 501 kts | 14° |
| 2026-05-05 23:47 | 68.64564 | -165.57199 | 39009 ft | 502 kts | 14° |
| 2026-05-05 23:47 | 68.71286 | -165.51895 | 39010 ft | 502 kts | 14° |
| 2026-05-05 23:48 | 68.77995 | -165.46569 | 39005 ft | 502 kts | 14° |
| 2026-05-05 23:48 | 68.84715 | -165.41201 | 39010 ft | 502 kts | 14° |
| 2026-05-05 23:49 | 68.91432 | -165.35801 | 39016 ft | 503 kts | 15° |
| 2026-05-05 23:49 | 68.98162 | -165.30356 | 39003 ft | 503 kts | 15° |
| 2026-05-05 23:50 | 69.04887 | -165.24880 | 39006 ft | 503 kts | 15° |
| 2026-05-05 23:50 | 69.10472 | -165.20306 | 39007 ft | 504 kts | 15° |
| 2026-05-05 23:51 | 69.18293 | -165.13860 | 39009 ft | 504 kts | 15° |
| 2026-05-05 23:51 | 69.25023 | -165.08274 | 39006 ft | 504 kts | 15° |
| 2026-05-05 23:52 | 69.31757 | -165.02649 | 39003 ft | 505 kts | 15° |
| 2026-05-05 23:52 | 69.38490 | -164.96987 | 39003 ft | 505 kts | 15° |
| 2026-05-05 23:53 | 69.45220 | -164.91291 | 39002 ft | 505 kts | 15° |
| 2026-05-05 23:53 | 69.51956 | -164.85553 | 39002 ft | 505 kts | 15° |
| 2026-05-05 23:54 | 69.58690 | -164.79779 | 38997 ft | 505 kts | 15° |
| 2026-05-05 23:54 | 69.65411 | -164.73976 | 38999 ft | 505 kts | 15° |
| 2026-05-05 23:55 | 69.72165 | -164.68109 | 38995 ft | 505 kts | 15° |
| 2026-05-05 23:55 | 69.78855 | -164.62256 | 38996 ft | 505 kts | 15° |
| 2026-05-05 23:56 | 69.85590 | -164.56325 | 38992 ft | 505 kts | 15° |
| 2026-05-05 23:56 | 69.92314 | -164.50365 | 38989 ft | 506 kts | 15° |
| 2026-05-05 23:57 | 69.99053 | -164.44350 | 38989 ft | 505 kts | 16° |
| 2026-05-05 23:57 | 70.05777 | -164.38308 | 38992 ft | 505 kts | 16° |
| 2026-05-05 23:58 | 70.12506 | -164.32222 | 38988 ft | 506 kts | 16° |
| 2026-05-05 23:58 | 70.19225 | -164.26101 | 38991 ft | 506 kts | 16° |
| 2026-05-05 23:59 | 70.25952 | -164.19933 | 38985 ft | 506 kts | 16° |
| 2026-05-05 23:59 | 70.32640 | -164.13758 | 38984 ft | 506 kts | 16° |
| 2026-05-06 00:00 | 70.39363 | -164.07507 | 38985 ft | 506 kts | 16° |
| 2026-05-06 00:00 | 70.46081 | -164.01218 | 38986 ft | 506 kts | 16° |
| 2026-05-06 00:01 | 70.52824 | -163.94862 | 38988 ft | 506 kts | 16° |
| 2026-05-06 00:01 | 70.59538 | -163.88488 | 38982 ft | 506 kts | 16° |
| 2026-05-06 00:02 | 70.66265 | -163.82057 | 38989 ft | 506 kts | 17° |
| 2026-05-06 00:02 | 70.72978 | -163.75595 | 38982 ft | 506 kts | 17° |
| 2026-05-06 00:03 | 70.79695 | -163.69082 | 38985 ft | 506 kts | 17° |
| 2026-05-06 00:03 | 70.86371 | -163.62564 | 38976 ft | 507 kts | 17° |
| 2026-05-06 00:04 | 70.93074 | -163.55974 | 38975 ft | 507 kts | 17° |
| 2026-05-06 00:04 | 70.99789 | -163.49324 | 38972 ft | 507 kts | 17° |
| 2026-05-06 00:05 | 71.09857 | -163.39264 | 38974 ft | 507 kts | 17° |
| 2026-05-06 00:06 | 71.16569 | -163.32496 | 38977 ft | 507 kts | 17° |
| 2026-05-06 00:06 | 71.23244 | -163.25719 | 38983 ft | 507 kts | 17° |
| 2026-05-06 00:07 | 71.28858 | -163.19979 | 38968 ft | 507 kts | 17° |
| 2026-05-06 00:07 | 71.35572 | -163.13069 | 38967 ft | 507 kts | 17° |
| 2026-05-06 00:08 | 71.42240 | -163.06156 | 38968 ft | 507 kts | 17° |
| 2026-05-06 00:08 | 71.48938 | -162.99162 | 38970 ft | 507 kts | 17° |
| 2026-05-06 00:09 | 71.55639 | -162.92112 | 38963 ft | 507 kts | 17° |
| 2026-05-06 00:09 | 71.62340 | -162.85009 | 38964 ft | 508 kts | 18° |
| 2026-05-06 00:10 | 71.69042 | -162.77853 | 38964 ft | 508 kts | 18° |
| 2026-05-06 00:10 | 71.75747 | -162.70639 | 38964 ft | 508 kts | 18° |
| 2026-05-06 00:11 | 71.82446 | -162.63379 | 38963 ft | 508 kts | 18° |
| 2026-05-06 00:11 | 71.89143 | -162.56066 | 38965 ft | 508 kts | 18° |
| 2026-05-06 00:12 | 71.95839 | -162.48697 | 38963 ft | 508 kts | 18° |
| 2026-05-06 00:12 | 72.02541 | -162.41265 | 38966 ft | 508 kts | 18° |
| 2026-05-06 00:13 | 72.09238 | -162.33783 | 38968 ft | 509 kts | 18° |
| 2026-05-06 00:13 | 72.15923 | -162.26256 | 38977 ft | 509 kts | 18° |
| 2026-05-06 00:14 | 72.22621 | -162.18657 | 38968 ft | 509 kts | 18° |
| 2026-05-06 00:14 | 72.29319 | -162.10998 | 38967 ft | 509 kts | 18° |
| 2026-05-06 00:15 | 72.35970 | -162.03334 | 38969 ft | 509 kts | 18° |
| 2026-05-06 00:15 | 72.42656 | -161.95570 | 38972 ft | 509 kts | 19° |
| 2026-05-06 00:16 | 72.49345 | -161.87741 | 38976 ft | 509 kts | 19° |
| 2026-05-06 00:16 | 72.56030 | -161.79856 | 38972 ft | 510 kts | 19° |
| 2026-05-06 00:17 | 72.62686 | -161.71941 | 38971 ft | 510 kts | 19° |
| 2026-05-06 00:17 | 72.69422 | -161.63869 | 38977 ft | 510 kts | 19° |
| 2026-05-06 00:18 | 72.76104 | -161.55797 | 38979 ft | 511 kts | 19° |
| 2026-05-06 00:18 | 72.82792 | -161.47653 | 38983 ft | 511 kts | 19° |
| 2026-05-06 00:19 | 72.89494 | -161.39425 | 38982 ft | 511 kts | 19° |
| 2026-05-06 00:19 | 72.96193 | -161.31135 | 38987 ft | 512 kts | 19° |
| 2026-05-06 00:20 | 73.02886 | -161.22783 | 38988 ft | 512 kts | 19° |
| 2026-05-06 00:20 | 73.09537 | -161.14417 | 38998 ft | 512 kts | 19° |
| 2026-05-06 00:21 | 73.16234 | -161.05924 | 38997 ft | 513 kts | 20° |
| 2026-05-06 00:21 | 73.22949 | -160.97337 | 39004 ft | 514 kts | 20° |
| 2026-05-06 00:22 | 73.29650 | -160.88696 | 39003 ft | 514 kts | 20° |
| 2026-05-06 00:22 | 73.36347 | -160.79988 | 39008 ft | 514 kts | 20° |
| 2026-05-06 00:23 | 73.43049 | -160.71201 | 39010 ft | 513 kts | 20° |
| 2026-05-06 00:23 | 73.49734 | -160.62362 | 39005 ft | 514 kts | 20° |
| 2026-05-06 00:24 | 73.56430 | -160.53433 | 39001 ft | 514 kts | 20° |
| 2026-05-06 00:24 | 73.63122 | -160.44433 | 39012 ft | 514 kts | 20° |
| 2026-05-06 00:25 | 73.69762 | -160.35427 | 39002 ft | 514 kts | 20° |
| 2026-05-06 00:25 | 73.76432 | -160.26302 | 39016 ft | 514 kts | 20° |
| 2026-05-06 00:26 | 73.83109 | -160.17091 | 39021 ft | 514 kts | 21° |
| 2026-05-06 00:26 | 73.89773 | -160.07818 | 39023 ft | 513 kts | 21° |
| 2026-05-06 00:27 | 73.96438 | -159.98461 | 39022 ft | 513 kts | 21° |
| 2026-05-06 00:27 | 74.03088 | -159.89044 | 39030 ft | 513 kts | 21° |
| 2026-05-06 00:28 | 74.09740 | -159.79542 | 39030 ft | 513 kts | 21° |
| 2026-05-06 00:28 | 74.16390 | -159.69961 | 39032 ft | 513 kts | 21° |
| 2026-05-06 00:29 | 74.23042 | -159.60289 | 39028 ft | 513 kts | 21° |
| 2026-05-06 00:29 | 74.29677 | -159.50557 | 39026 ft | 513 kts | 21° |
| 2026-05-06 00:30 | 74.36278 | -159.40789 | 39027 ft | 513 kts | 21° |
| 2026-05-06 00:30 | 74.42946 | -159.30833 | 39035 ft | 513 kts | 22° |
| 2026-05-06 00:31 | 74.49569 | -159.20855 | 39032 ft | 513 kts | 22° |
| 2026-05-06 00:31 | 74.56146 | -159.10857 | 39044 ft | 513 kts | 22° |
| 2026-05-06 00:32 | 74.62806 | -159.00639 | 39041 ft | 513 kts | 22° |
| 2026-05-06 00:32 | 74.69413 | -158.90412 | 39049 ft | 513 kts | 22° |
| 2026-05-06 00:33 | 74.76024 | -158.80083 | 39044 ft | 513 kts | 22° |